createdAt,value
2022-09-26T00:00:13.092Z,4.80
2022-09-26T00:01:13.317Z,5.40
2022-09-26T00:02:13.473Z,5.60
2022-09-26T00:03:13.613Z,4.60
2022-09-26T00:04:13.774Z,4.50
2022-09-26T00:05:13.944Z,5.00
2022-09-26T00:06:14.114Z,4.40
2022-09-26T00:07:14.282Z,4.70
2022-09-26T00:08:14.434Z,5.60
2022-09-26T00:09:14.816Z,5.40
2022-09-26T00:10:14.815Z,5.20
2022-09-26T00:11:15.007Z,5.30
2022-09-26T00:12:15.135Z,4.30
2022-09-26T00:13:15.297Z,3.90
2022-09-26T00:14:15.479Z,5.30
2022-09-26T00:15:15.626Z,3.70
2022-09-26T00:16:15.873Z,5.20
2022-09-26T00:17:16.011Z,6.20
2022-09-26T00:18:16.175Z,4.50
2022-09-26T00:19:16.345Z,4.70
2022-09-26T00:20:16.505Z,4.40
2022-09-26T00:21:16.689Z,5.30
2022-09-26T00:22:16.848Z,5.80
2022-09-26T00:23:17.009Z,3.90
2022-09-26T00:24:17.182Z,4.90
2022-09-26T00:25:17.340Z,4.00
2022-09-26T00:26:17.530Z,3.60
2022-09-26T00:27:17.699Z,4.50
2022-09-26T00:28:17.855Z,4.00
2022-09-26T00:29:18.042Z,4.20
2022-09-26T00:30:18.478Z,4.10
2022-09-26T00:31:18.468Z,4.40
2022-09-26T00:32:18.581Z,4.10
2022-09-26T00:33:18.731Z,4.60
2022-09-26T00:34:18.944Z,4.10
2022-09-26T00:35:19.096Z,5.50
2022-09-26T00:36:19.282Z,3.50
2022-09-26T00:37:19.472Z,4.10
2022-09-26T00:38:19.624Z,4.90
2022-09-26T00:39:19.805Z,5.20
2022-09-26T00:40:20.005Z,4.60
2022-09-26T00:41:20.147Z,4.50
2022-09-26T00:42:20.306Z,5.40
2022-09-26T00:43:20.495Z,4.70
2022-09-26T00:44:20.622Z,4.20
2022-09-26T00:45:20.777Z,4.30
2022-09-26T00:46:20.999Z,4.70
2022-09-26T00:47:21.117Z,4.80
2022-09-26T00:48:21.329Z,4.40
2022-09-26T00:49:21.487Z,5.00
2022-09-26T00:50:21.666Z,4.40
2022-09-26T00:51:21.828Z,4.20
2022-09-26T00:52:21.997Z,6.00
2022-09-26T00:53:22.152Z,4.40
2022-09-26T00:54:22.349Z,5.00
2022-09-26T00:55:22.501Z,5.20
2022-09-26T00:56:22.689Z,4.30
2022-09-26T00:57:22.879Z,3.80
2022-09-26T00:58:23.040Z,3.90
2022-09-26T00:59:23.190Z,6.00
2022-09-26T01:00:23.381Z,4.60
2022-09-26T01:01:23.639Z,5.80
2022-09-26T01:02:23.819Z,5.30
2022-09-26T01:03:23.881Z,4.50
2022-09-26T01:04:24.046Z,3.50
2022-09-26T01:05:24.202Z,3.80
2022-09-26T01:06:24.392Z,4.00
2022-09-26T01:07:24.562Z,5.20
2022-09-26T01:08:24.726Z,4.10
2022-09-26T01:09:24.873Z,4.30
2022-09-26T01:10:25.074Z,3.70
2022-09-26T01:11:25.231Z,5.30
2022-09-26T01:12:25.406Z,4.70
2022-09-26T01:13:25.566Z,5.70
2022-09-26T01:14:25.725Z,4.80
2022-09-26T01:15:25.884Z,4.60
2022-09-26T01:16:26.116Z,5.80
2022-09-26T01:17:26.245Z,4.60
2022-09-26T01:18:26.412Z,4.50
2022-09-26T01:19:26.568Z,5.20
2022-09-26T01:20:26.726Z,4.50
2022-09-26T01:21:26.888Z,5.20
2022-09-26T01:22:27.071Z,5.50
2022-09-26T01:23:27.241Z,3.60
2022-09-26T01:24:27.413Z,3.80
2022-09-26T01:25:27.586Z,7.60
2022-09-26T01:26:27.746Z,3.50
2022-09-26T01:27:27.910Z,3.70
2022-09-26T01:28:28.082Z,5.10
2022-09-26T01:29:28.251Z,3.30
2022-09-26T01:30:28.487Z,4.70
2022-09-26T01:31:28.649Z,4.10
2022-09-26T01:32:28.744Z,4.70
2022-09-26T01:33:28.966Z,3.90
2022-09-26T01:34:29.102Z,4.20
2022-09-26T01:35:29.266Z,4.20
2022-09-26T01:36:29.421Z,5.30
2022-09-26T01:37:29.612Z,5.20
2022-09-26T01:38:29.785Z,4.70
2022-09-26T01:39:29.945Z,4.00
2022-09-26T01:40:30.163Z,3.50
2022-09-26T01:41:30.314Z,4.90
2022-09-26T01:42:30.442Z,4.60
2022-09-26T01:43:30.600Z,6.10
2022-09-26T01:44:30.754Z,4.60
2022-09-26T01:45:31.017Z,5.00
2022-09-26T01:46:31.135Z,5.80
2022-09-26T01:47:31.295Z,4.10
2022-09-26T01:48:31.447Z,4.60
2022-09-26T01:49:31.644Z,5.00
2022-09-26T01:50:31.817Z,4.00
2022-09-26T01:51:31.967Z,4.20
2022-09-26T01:52:32.131Z,5.10
2022-09-26T01:53:32.288Z,5.90
2022-09-26T01:54:32.447Z,4.10
2022-09-26T01:55:32.623Z,4.00
2022-09-26T01:56:32.779Z,4.50
2022-09-26T01:57:32.937Z,4.60
2022-09-26T01:58:33.098Z,4.60
2022-09-26T01:59:33.264Z,4.50
2022-09-26T02:00:33.445Z,4.80
2022-09-26T02:01:33.614Z,3.80
2022-09-26T02:02:33.793Z,4.00
2022-09-26T02:03:33.935Z,3.70
2022-09-26T02:04:34.090Z,4.50
2022-09-26T02:05:34.303Z,5.20
2022-09-26T02:06:34.467Z,4.40
2022-09-26T02:07:34.621Z,4.20
2022-09-26T02:08:34.776Z,4.30
2022-09-26T02:09:34.965Z,4.00
2022-09-26T02:10:35.144Z,4.40
2022-09-26T02:11:35.304Z,4.80
2022-09-26T02:12:35.466Z,4.40
2022-09-26T02:13:35.630Z,5.00
2022-09-26T02:14:35.785Z,6.20
2022-09-26T02:15:35.979Z,7.00
2022-09-26T02:16:36.137Z,5.10
2022-09-26T02:17:36.322Z,4.50
2022-09-26T02:18:36.464Z,4.90
2022-09-26T02:19:36.675Z,4.50
2022-09-26T02:20:36.835Z,4.90
2022-09-26T02:21:37.005Z,5.70
2022-09-26T02:22:37.167Z,5.10
2022-09-26T02:23:37.336Z,5.90
2022-09-26T02:24:37.502Z,4.70
2022-09-26T02:25:37.666Z,5.50
2022-09-26T02:26:37.827Z,4.90
2022-09-26T02:27:37.991Z,5.90
2022-09-26T02:28:38.153Z,3.90
2022-09-26T02:29:38.312Z,4.30
2022-09-26T02:30:38.468Z,4.30
2022-09-26T02:31:38.714Z,5.20
2022-09-26T02:32:38.812Z,4.40
2022-09-26T02:33:39.013Z,6.40
2022-09-26T02:34:39.170Z,3.80
2022-09-26T02:35:39.331Z,3.90
2022-09-26T02:36:39.515Z,4.20
2022-09-26T02:37:39.661Z,4.50
2022-09-26T02:38:39.813Z,4.90
2022-09-26T02:39:40.000Z,3.90
2022-09-26T02:40:40.211Z,5.70
2022-09-26T02:41:40.381Z,6.00
2022-09-26T02:42:40.541Z,5.40
2022-09-26T02:43:40.694Z,4.50
2022-09-26T02:44:40.854Z,5.60
2022-09-26T02:45:41.141Z,5.30
2022-09-26T02:46:41.225Z,4.60
2022-09-26T02:47:41.388Z,5.10
2022-09-26T02:48:41.546Z,5.80
2022-09-26T02:49:41.769Z,4.30
2022-09-26T02:50:41.904Z,4.80
2022-09-26T02:51:42.067Z,5.00
2022-09-26T02:52:42.236Z,4.80
2022-09-26T02:53:42.402Z,4.70
2022-09-26T02:54:42.558Z,5.70
2022-09-26T02:55:42.751Z,5.20
2022-09-26T02:56:42.907Z,4.90
2022-09-26T02:57:43.079Z,5.40
2022-09-26T02:58:43.236Z,6.80
2022-09-26T02:59:43.428Z,6.80
2022-09-26T03:00:43.612Z,5.60
2022-09-26T03:01:43.869Z,5.80
2022-09-26T03:02:43.949Z,4.30
2022-09-26T03:03:44.157Z,4.80
2022-09-26T03:04:44.342Z,4.60
2022-09-26T03:05:44.460Z,6.20
2022-09-26T03:06:44.621Z,4.30
2022-09-26T03:07:44.842Z,5.50
2022-09-26T03:08:44.990Z,4.50
2022-09-26T03:09:45.151Z,6.40
2022-09-26T03:10:45.336Z,5.90
2022-09-26T03:11:45.481Z,5.30
2022-09-26T03:12:45.691Z,5.10
2022-09-26T03:13:45.854Z,4.80
2022-09-26T03:14:46.012Z,4.50
2022-09-26T03:15:46.170Z,5.70
2022-09-26T03:16:46.382Z,4.80
2022-09-26T03:17:46.527Z,5.00
2022-09-26T03:18:46.702Z,4.60
2022-09-26T03:19:46.856Z,4.80
2022-09-26T03:20:47.023Z,5.10
2022-09-26T03:21:47.177Z,5.50
2022-09-26T03:22:47.368Z,4.40
2022-09-26T03:23:47.525Z,5.20
2022-09-26T03:24:47.684Z,5.30
2022-09-26T03:25:47.844Z,4.70
2022-09-26T03:26:48.005Z,5.20
2022-09-26T03:27:48.176Z,5.60
2022-09-26T03:28:48.338Z,5.80
2022-09-26T03:29:48.502Z,4.40
2022-09-26T03:30:48.653Z,5.20
2022-09-26T03:31:48.921Z,6.20
2022-09-26T03:32:49.019Z,3.90
2022-09-26T03:33:49.193Z,4.60
2022-09-26T03:34:49.354Z,4.80
2022-09-26T03:35:49.519Z,4.60
2022-09-26T03:36:49.685Z,5.20
2022-09-26T03:37:49.840Z,4.60
2022-09-26T03:38:50.005Z,4.90
2022-09-26T03:39:50.166Z,6.20
2022-09-26T03:40:50.408Z,4.90
2022-09-26T03:41:50.481Z,5.20
2022-09-26T03:42:50.655Z,6.10
2022-09-26T03:43:50.813Z,5.10
2022-09-26T03:44:50.977Z,5.70
2022-09-26T03:45:51.212Z,5.50
2022-09-26T03:46:51.316Z,5.30
2022-09-26T03:47:51.473Z,4.30
2022-09-26T03:48:51.633Z,5.10
2022-09-26T03:49:51.794Z,5.90
2022-09-26T03:50:51.970Z,4.10
2022-09-26T03:51:52.143Z,5.00
2022-09-26T03:52:52.305Z,4.60
2022-09-26T03:53:52.464Z,5.10
2022-09-26T03:54:52.624Z,5.10
2022-09-26T03:55:52.788Z,4.90
2022-09-26T03:56:52.950Z,4.60
2022-09-26T03:57:53.113Z,4.20
2022-09-26T03:58:53.276Z,4.30
2022-09-26T03:59:53.440Z,5.30
2022-09-26T04:00:53.674Z,4.70
2022-09-26T04:01:53.853Z,4.80
2022-09-26T04:02:53.946Z,5.60
2022-09-26T04:03:54.106Z,5.50
2022-09-26T04:04:54.264Z,4.50
2022-09-26T04:05:54.419Z,5.60
2022-09-26T04:06:54.620Z,5.80
2022-09-26T04:07:54.769Z,5.10
2022-09-26T04:08:54.939Z,4.50
2022-09-26T04:09:55.101Z,5.00
2022-09-26T04:10:55.250Z,4.50
2022-09-26T04:11:55.463Z,5.00
2022-09-26T04:12:55.614Z,5.50
2022-09-26T04:13:55.801Z,4.90
2022-09-26T04:14:55.960Z,6.60
2022-09-26T04:15:56.220Z,5.20
2022-09-26T04:16:56.341Z,4.50
2022-09-26T04:17:56.500Z,5.90
2022-09-26T04:18:56.803Z,5.50
2022-09-26T04:19:56.834Z,4.60
2022-09-26T04:20:56.984Z,5.10
2022-09-26T04:21:57.196Z,4.40
2022-09-26T04:22:57.356Z,5.50
2022-09-26T04:23:57.534Z,5.50
2022-09-26T04:24:57.723Z,4.60
2022-09-26T04:25:57.881Z,5.30
2022-09-26T04:26:58.083Z,5.20
2022-09-26T04:27:58.235Z,4.10
2022-09-26T04:28:58.395Z,5.30
2022-09-26T04:29:58.585Z,5.80
2022-09-26T04:30:58.776Z,5.00
2022-09-26T04:31:59.043Z,4.90
2022-09-26T04:32:59.147Z,4.00
2022-09-26T04:33:59.332Z,5.40
2022-09-26T04:34:59.521Z,4.60
2022-09-26T04:35:59.708Z,5.30
2022-09-26T04:36:59.897Z,4.40
2022-09-26T04:38:00.069Z,4.90
2022-09-26T04:39:00.229Z,4.50
2022-09-26T04:40:00.421Z,4.60
2022-09-26T04:41:00.645Z,4.70
2022-09-26T04:42:00.753Z,5.20
2022-09-26T04:43:00.919Z,6.30
2022-09-26T04:44:01.114Z,6.10
2022-09-26T04:45:01.240Z,4.00
2022-09-26T04:46:01.521Z,5.70
2022-09-26T04:47:01.593Z,5.40
2022-09-26T04:48:01.802Z,4.50
2022-09-26T04:49:02.020Z,5.40
2022-09-26T04:50:02.191Z,6.30
2022-09-26T04:51:02.320Z,6.10
2022-09-26T04:52:02.522Z,5.90
2022-09-26T04:53:02.685Z,5.30
2022-09-26T04:54:02.843Z,5.00
2022-09-26T04:55:03.066Z,6.00
2022-09-26T04:56:03.186Z,6.40
2022-09-26T04:57:03.364Z,5.10
2022-09-26T04:58:03.522Z,5.80
2022-09-26T04:59:03.680Z,6.40
2022-09-26T05:00:03.840Z,6.60
2022-09-26T05:01:04.084Z,6.80
2022-09-26T05:02:04.203Z,5.50
2022-09-26T05:03:04.361Z,7.60
2022-09-26T05:04:04.517Z,6.30
2022-09-26T05:05:04.692Z,7.20
2022-09-26T05:06:04.858Z,6.40
2022-09-26T05:07:05.038Z,5.50
2022-09-26T05:08:05.237Z,6.00
2022-09-26T05:09:05.400Z,6.20
2022-09-26T05:10:05.577Z,4.90
2022-09-26T05:11:05.758Z,5.80
2022-09-26T05:12:05.947Z,6.20
2022-09-26T05:13:06.139Z,5.30
2022-09-26T05:14:06.299Z,7.10
2022-09-26T05:15:06.470Z,6.30
2022-09-26T05:16:06.685Z,4.50
2022-09-26T05:17:06.820Z,5.20
2022-09-26T05:18:07.020Z,5.90
2022-09-26T05:19:07.152Z,5.20
2022-09-26T05:20:07.334Z,5.90
2022-09-26T05:21:07.584Z,5.80
2022-09-26T05:22:07.672Z,6.70
2022-09-26T05:23:07.888Z,5.70
2022-09-26T05:24:08.013Z,5.70
2022-09-26T05:25:08.193Z,5.70
2022-09-26T05:26:08.373Z,5.50
2022-09-26T05:27:08.554Z,6.60
2022-09-26T05:28:08.758Z,5.00
2022-09-26T05:29:09.321Z,5.60
2022-09-26T05:30:09.084Z,4.40
2022-09-26T05:31:09.291Z,5.90
2022-09-26T05:32:09.444Z,5.50
2022-09-26T05:33:09.625Z,5.00
2022-09-26T05:34:17.087Z,5.80
2022-09-26T05:35:10.965Z,5.90
2022-09-26T05:36:10.126Z,4.50
2022-09-26T05:37:10.310Z,5.50
2022-09-26T05:38:10.526Z,6.00
2022-09-26T05:39:10.667Z,6.30
2022-09-26T05:40:10.942Z,6.40
2022-09-26T05:41:11.031Z,5.10
2022-09-26T05:42:11.198Z,5.80
2022-09-26T05:43:11.397Z,4.80
2022-09-26T05:44:11.538Z,5.40
2022-09-26T05:45:11.721Z,6.20
2022-09-26T05:46:12.017Z,4.60
2022-09-26T05:47:12.112Z,6.00
2022-09-26T05:48:12.250Z,5.60
2022-09-26T05:49:12.421Z,5.40
2022-09-26T05:50:12.571Z,5.70
2022-09-26T05:51:12.759Z,5.30
2022-09-26T05:52:12.933Z,5.40
2022-09-26T05:53:13.138Z,4.30
2022-09-26T05:54:13.272Z,6.40
2022-09-26T05:55:13.457Z,5.50
2022-09-26T05:56:18.321Z,5.30
2022-09-26T05:57:14.802Z,6.20
2022-09-26T05:58:13.973Z,7.20
2022-09-26T05:59:14.223Z,5.90
2022-09-26T06:00:14.303Z,5.40
2022-09-26T06:01:14.555Z,6.30
2022-09-26T06:02:18.626Z,6.20
2022-09-26T06:03:15.834Z,5.50
2022-09-26T06:04:14.997Z,7.60
2022-09-26T06:05:15.185Z,7.20
2022-09-26T06:06:15.341Z,5.50
2022-09-26T06:07:15.745Z,6.10
2022-09-26T06:08:15.666Z,5.30
2022-09-26T06:09:15.986Z,7.10
2022-09-26T06:10:16.006Z,6.00
2022-09-26T06:11:16.197Z,6.80
2022-09-26T06:12:16.367Z,7.50
2022-09-26T06:13:16.565Z,5.70
2022-09-26T06:14:16.717Z,5.40
2022-09-26T06:15:16.902Z,6.70
2022-09-26T06:16:17.126Z,7.70
2022-09-26T06:17:17.304Z,5.90
2022-09-26T06:18:17.458Z,7.40
2022-09-26T06:19:22.700Z,6.90
2022-09-26T06:20:18.817Z,7.70
2022-09-26T06:21:18.000Z,7.70
2022-09-26T06:22:18.214Z,6.70
2022-09-26T06:23:18.352Z,6.50
2022-09-26T06:24:18.519Z,6.90
2022-09-26T06:25:18.712Z,7.10
2022-09-26T06:26:18.860Z,6.90
2022-09-26T06:27:19.072Z,6.20
2022-09-26T06:28:19.214Z,5.70
2022-09-26T06:29:19.395Z,6.10
2022-09-26T06:30:19.582Z,5.90
2022-09-26T06:31:19.922Z,6.30
2022-09-26T06:32:19.965Z,6.10
2022-09-26T06:33:20.133Z,6.50
2022-09-26T06:34:20.314Z,6.00
2022-09-26T06:35:20.483Z,5.80
2022-09-26T06:36:20.914Z,6.80
2022-09-26T06:37:20.825Z,6.00
2022-09-26T06:38:21.005Z,6.90
2022-09-26T06:39:21.196Z,7.10
2022-09-26T06:40:21.446Z,5.70
2022-09-26T06:41:21.556Z,6.90
2022-09-26T06:42:21.728Z,6.30
2022-09-26T06:43:21.905Z,6.50
2022-09-26T06:44:22.089Z,5.30
2022-09-26T06:45:22.266Z,5.10
2022-09-26T06:46:22.506Z,5.60
2022-09-26T06:47:22.656Z,5.10
2022-09-26T06:48:24.672Z,5.60
2022-09-26T06:49:22.948Z,6.20
2022-09-26T06:50:23.150Z,5.30
2022-09-26T06:51:23.322Z,6.00
2022-09-26T06:52:23.509Z,5.90
2022-09-26T06:53:23.696Z,4.90
2022-09-26T06:54:23.922Z,4.80
2022-09-26T06:55:24.079Z,6.00
2022-09-26T06:56:24.319Z,6.20
2022-09-26T06:57:24.440Z,5.30
2022-09-26T06:58:24.602Z,6.30
2022-09-26T06:59:24.813Z,6.00
2022-09-26T07:00:25.089Z,7.20
2022-09-26T07:01:25.255Z,7.30
2022-09-26T07:02:25.337Z,6.30
2022-09-26T07:03:25.467Z,6.40
2022-09-26T07:04:25.668Z,6.40
2022-09-26T07:05:25.852Z,6.80
2022-09-26T07:06:26.022Z,6.80
2022-09-26T07:07:26.164Z,7.20
2022-09-26T07:08:43.707Z,7.30
2022-09-26T07:09:27.536Z,7.70
2022-09-26T07:10:26.669Z,7.40
2022-09-26T07:12:09.863Z,8.70
2022-09-26T07:12:28.036Z,7.90
2022-09-26T07:13:27.225Z,7.40
2022-09-26T07:14:27.407Z,6.50
2022-09-26T07:15:27.623Z,4.80
2022-09-26T07:16:27.871Z,7.30
2022-09-26T07:17:27.920Z,6.40
2022-09-26T07:18:28.106Z,5.20
2022-09-26T07:19:28.288Z,7.30
2022-09-26T07:20:28.486Z,6.70
2022-09-26T07:21:28.668Z,7.00
2022-09-26T07:22:28.868Z,7.20
2022-09-26T07:23:29.007Z,6.50
2022-09-26T07:24:29.199Z,7.00
2022-09-26T07:25:29.398Z,6.70
2022-09-26T07:26:29.589Z,6.70
2022-09-26T07:27:29.759Z,7.40
2022-09-26T07:28:29.920Z,7.90
2022-09-26T07:29:30.080Z,6.80
2022-09-26T07:30:30.250Z,6.00
2022-09-26T07:31:30.456Z,7.10
2022-09-26T07:32:30.632Z,7.20
2022-09-26T07:33:30.765Z,8.20
2022-09-26T07:34:30.950Z,7.20
2022-09-26T07:35:31.165Z,7.20
2022-09-26T07:36:31.322Z,6.00
2022-09-26T07:37:31.503Z,9.60
2022-09-26T07:38:31.703Z,5.80
2022-09-26T07:39:31.873Z,5.60
2022-09-26T07:40:32.161Z,9.20
2022-09-26T07:41:32.257Z,18.20
2022-09-26T07:42:32.476Z,9.40
2022-09-26T07:45:34.237Z,8.10
2022-09-26T07:46:33.121Z,7.10
2022-09-26T07:47:33.236Z,9.20
2022-09-26T07:48:33.416Z,7.30
2022-09-26T07:49:33.625Z,8.80
2022-09-26T07:50:33.787Z,7.70
2022-09-26T07:51:33.989Z,6.40
2022-09-26T07:52:34.157Z,7.40
2022-09-26T07:53:34.468Z,6.80
2022-09-26T07:54:34.492Z,6.90
2022-09-26T07:55:34.687Z,7.00
2022-09-26T07:56:34.885Z,6.80
2022-09-26T07:57:35.061Z,6.80
2022-09-26T07:58:35.239Z,7.20
2022-09-26T07:59:35.437Z,8.30
2022-09-26T08:00:35.611Z,6.70
2022-09-26T08:01:35.811Z,7.20
2022-09-26T08:02:36.252Z,8.30
2022-09-26T08:03:36.111Z,7.30
2022-09-26T08:04:36.296Z,6.80
2022-09-26T08:05:36.482Z,7.00
2022-09-26T08:06:36.681Z,7.10
2022-09-26T08:07:36.822Z,6.30
2022-09-26T08:08:37.012Z,5.90
2022-09-26T08:09:37.192Z,7.20
2022-09-26T08:10:37.378Z,6.30
2022-09-26T08:11:37.598Z,6.20
2022-09-26T08:12:37.743Z,6.70
2022-09-26T08:13:37.923Z,6.50
2022-09-26T08:14:38.114Z,7.10
2022-09-26T08:15:38.352Z,5.80
2022-09-26T08:16:38.548Z,6.40
2022-09-26T08:17:38.666Z,5.50
2022-09-26T08:18:38.846Z,5.70
2022-09-26T08:19:39.026Z,5.80
2022-09-26T08:20:39.213Z,6.00
2022-09-26T08:21:39.396Z,5.80
2022-09-26T08:22:39.538Z,5.50
2022-09-26T08:23:39.728Z,5.90
2022-09-26T08:24:39.927Z,5.90
2022-09-26T08:25:40.108Z,6.40
2022-09-26T08:26:44.196Z,5.80
2022-09-26T08:27:40.539Z,4.60
2022-09-26T08:28:40.628Z,5.50
2022-09-26T08:29:40.803Z,5.80
2022-09-26T08:30:40.989Z,5.90
2022-09-26T08:31:41.255Z,4.70
2022-09-26T08:32:41.350Z,6.30
2022-09-26T08:33:41.531Z,5.60
2022-09-26T08:34:41.681Z,5.80
2022-09-26T08:35:41.893Z,5.70
2022-09-26T08:36:42.042Z,5.00
2022-09-26T08:37:42.192Z,5.70
2022-09-26T08:38:42.394Z,5.40
2022-09-26T08:39:42.542Z,3.60
2022-09-26T08:40:42.750Z,6.00
2022-09-26T08:41:42.894Z,4.60
2022-09-26T08:42:43.083Z,4.70
2022-09-26T08:43:43.284Z,6.50
2022-09-26T08:44:43.443Z,4.40
2022-09-26T08:45:47.478Z,5.30
2022-09-26T08:46:43.832Z,4.40
2022-09-26T08:47:43.972Z,5.40
2022-09-26T08:48:44.165Z,3.90
2022-09-26T08:49:44.342Z,4.00
2022-09-26T08:50:44.526Z,4.20
2022-09-26T08:51:44.706Z,4.60
2022-09-26T08:52:44.886Z,3.10
2022-09-26T08:53:45.092Z,4.80
2022-09-26T08:54:45.227Z,5.20
2022-09-26T08:55:45.419Z,5.00
2022-09-26T08:56:45.600Z,4.20
2022-09-26T08:57:45.788Z,3.60
2022-09-26T08:58:45.989Z,3.90
2022-09-26T08:59:46.147Z,4.10
2022-09-26T09:00:46.350Z,4.90
2022-09-26T09:01:46.678Z,4.20
2022-09-26T09:02:46.791Z,3.90
2022-09-26T09:03:46.878Z,5.00
2022-09-26T09:04:51.538Z,4.10
2022-09-26T09:05:48.193Z,4.80
2022-09-26T09:06:47.361Z,3.70
2022-09-26T09:07:47.521Z,3.20
2022-09-26T09:08:47.706Z,3.80
2022-09-26T09:09:47.863Z,4.00
2022-09-26T09:10:48.016Z,4.70
2022-09-26T09:11:51.064Z,4.20
2022-09-26T09:12:48.373Z,3.80
2022-09-26T09:13:48.553Z,3.20
2022-09-26T09:15:02.329Z,3.60
2022-09-26T09:15:49.977Z,3.00
2022-09-26T09:16:49.063Z,4.30
2022-09-26T09:17:49.244Z,4.30
2022-09-26T09:18:49.390Z,3.80
2022-09-26T09:19:49.545Z,3.50
2022-09-26T09:20:49.707Z,4.40
2022-09-26T09:21:49.867Z,4.60
2022-09-26T09:22:50.044Z,3.90
2022-09-26T09:23:50.206Z,4.30
2022-09-26T09:24:50.368Z,4.30
2022-09-26T09:25:50.615Z,3.70
2022-09-26T09:27:53.647Z,3.40
2022-09-26T09:28:51.030Z,4.20
2022-09-26T09:29:51.198Z,4.80
2022-09-26T09:30:51.422Z,4.20
2022-09-26T09:31:51.546Z,4.60
2022-09-26T09:32:51.679Z,3.10
2022-09-26T09:33:51.844Z,4.80
2022-09-26T09:34:54.013Z,4.50
2022-09-26T09:35:52.191Z,3.60
2022-09-26T09:36:52.390Z,5.10
2022-09-26T09:37:52.543Z,3.20
2022-09-26T09:38:52.682Z,3.60
2022-09-26T09:39:52.862Z,3.40
2022-09-26T09:40:53.089Z,3.70
2022-09-26T09:41:53.253Z,3.00
2022-09-26T09:42:53.413Z,2.60
2022-09-26T09:43:53.593Z,3.00
2022-09-26T09:44:53.793Z,2.80
2022-09-26T09:45:53.935Z,3.50
2022-09-26T09:46:54.168Z,2.40
2022-09-26T09:47:54.282Z,4.50
2022-09-26T09:48:54.474Z,3.20
2022-09-26T09:49:54.647Z,3.30
2022-09-26T09:50:54.845Z,3.30
2022-09-26T09:51:54.987Z,3.70
2022-09-26T09:52:55.171Z,3.80
2022-09-26T09:53:55.376Z,4.30
2022-09-26T09:54:55.545Z,3.40
2022-09-26T09:55:55.748Z,3.70
2022-09-26T09:56:55.917Z,3.90
2022-09-26T09:57:56.058Z,3.50
2022-09-26T09:58:56.246Z,2.90
2022-09-26T10:00:03.394Z,3.50
2022-09-26T10:00:56.558Z,2.50
2022-09-26T10:01:56.738Z,2.50
2022-09-26T10:02:56.959Z,3.50
2022-09-26T10:03:57.088Z,1.70
2022-09-26T10:04:57.240Z,1.90
2022-09-26T10:05:57.421Z,2.60
2022-09-26T10:06:57.610Z,2.00
2022-09-26T10:07:57.792Z,2.40
2022-09-26T10:08:57.991Z,2.80
2022-09-26T10:09:59.162Z,2.50
2022-09-26T10:10:58.322Z,2.20
2022-09-26T10:11:58.510Z,3.40
2022-09-26T10:12:58.702Z,1.90
2022-09-26T10:13:58.853Z,2.50
2022-09-26T10:14:59.022Z,1.70
2022-09-26T10:15:59.259Z,2.80
2022-09-26T10:16:59.381Z,6.50
2022-09-26T10:18:23.065Z,3.50
2022-09-26T10:19:03.411Z,5.40
2022-09-26T10:19:59.875Z,4.50
2022-09-26T10:21:00.093Z,3.40
2022-09-26T10:22:00.255Z,2.90
2022-09-26T10:23:00.427Z,2.70
2022-09-26T10:24:00.566Z,4.10
2022-09-26T10:25:00.761Z,3.00
2022-09-26T10:26:00.945Z,3.40
2022-09-26T10:27:01.128Z,2.90
2022-09-26T10:28:01.328Z,2.90
2022-09-26T10:29:01.551Z,3.50
2022-09-26T10:30:01.726Z,2.60
2022-09-26T10:31:01.888Z,2.70
2022-09-26T10:32:02.019Z,2.70
2022-09-26T10:33:02.218Z,2.20
2022-09-26T10:34:02.406Z,2.50
2022-09-26T10:35:02.581Z,2.20
2022-09-26T10:36:02.776Z,2.40
2022-09-26T10:37:02.951Z,1.60
2022-09-26T10:38:03.149Z,3.00
2022-09-26T10:39:03.311Z,2.80
2022-09-26T10:40:03.453Z,2.00
2022-09-26T10:41:03.826Z,1.60
2022-09-26T10:42:03.826Z,3.70
2022-09-26T10:43:04.033Z,2.30
2022-09-26T10:44:04.174Z,1.90
2022-09-26T10:45:04.324Z,2.00
2022-09-26T10:46:04.505Z,3.10
2022-09-26T10:47:04.655Z,3.40
2022-09-26T10:48:04.855Z,3.10
2022-09-26T10:49:05.025Z,2.60
2022-09-26T10:50:05.209Z,2.90
2022-09-26T10:51:05.415Z,1.90
2022-09-26T10:52:05.566Z,3.50
2022-09-26T10:53:05.742Z,3.10
2022-09-26T10:54:05.954Z,3.30
2022-09-26T10:55:06.086Z,2.00
2022-09-26T10:56:06.259Z,3.80
2022-09-26T10:57:06.440Z,4.20
2022-09-26T10:58:11.392Z,2.40
2022-09-26T10:59:07.819Z,4.80
2022-09-26T11:00:07.003Z,2.70
2022-09-26T11:01:07.192Z,4.90
2022-09-26T11:02:07.427Z,5.20
2022-09-26T11:03:07.553Z,4.50
2022-09-26T11:04:07.755Z,4.10
2022-09-26T11:05:07.851Z,2.70
2022-09-26T11:06:08.037Z,4.30
2022-09-26T11:07:08.230Z,2.70
2022-09-26T11:08:08.403Z,3.40
2022-09-26T11:09:08.574Z,3.00
2022-09-26T11:10:08.748Z,3.30
2022-09-26T11:11:08.951Z,2.60
2022-09-26T11:12:09.095Z,2.90
2022-09-26T11:13:09.299Z,2.50
2022-09-26T11:14:09.506Z,3.40
2022-09-26T11:15:09.614Z,3.90
2022-09-26T11:16:09.841Z,3.80
2022-09-26T11:17:10.003Z,3.60
2022-09-26T11:18:10.189Z,3.10
2022-09-26T11:19:10.351Z,4.00
2022-09-26T11:20:10.508Z,3.10
2022-09-26T11:21:23.252Z,3.40
2022-09-26T11:22:11.871Z,2.80
2022-09-26T11:23:10.997Z,3.60
2022-09-26T11:24:11.188Z,2.40
2022-09-26T11:25:11.350Z,3.60
2022-09-26T11:26:11.506Z,3.70
2022-09-26T11:27:11.710Z,2.60
2022-09-26T11:28:11.855Z,2.70
2022-09-26T11:29:12.019Z,2.90
2022-09-26T11:30:12.204Z,3.20
2022-09-26T11:31:12.402Z,3.10
2022-09-26T11:32:12.552Z,2.20
2022-09-26T11:33:12.735Z,4.60
2022-09-26T11:34:13.018Z,3.10
2022-09-26T11:35:13.114Z,3.40
2022-09-26T11:36:13.268Z,2.10
2022-09-26T11:37:13.463Z,2.90
2022-09-26T11:38:13.604Z,2.20
2022-09-26T11:39:13.930Z,3.30
2022-09-26T11:40:14.077Z,3.00
2022-09-26T11:41:14.135Z,3.30
2022-09-26T11:42:14.316Z,3.00
2022-09-26T11:43:14.505Z,4.00
2022-09-26T11:44:14.728Z,2.60
2022-09-26T11:45:14.847Z,5.70
2022-09-26T11:46:15.131Z,2.50
2022-09-26T11:47:15.218Z,2.70
2022-09-26T11:48:15.397Z,3.10
2022-09-26T11:49:15.558Z,3.20
2022-09-26T11:50:15.731Z,3.70
2022-09-26T11:51:15.908Z,3.60
2022-09-26T11:52:16.087Z,3.20
2022-09-26T11:53:16.250Z,4.30
2022-09-26T11:54:16.421Z,3.90
2022-09-26T11:55:16.580Z,3.40
2022-09-26T11:56:16.741Z,5.40
2022-09-26T11:57:16.941Z,3.90
2022-09-26T11:58:17.110Z,3.30
2022-09-26T11:59:17.295Z,2.30
2022-09-26T12:00:17.470Z,4.30
2022-09-26T12:01:17.673Z,3.70
2022-09-26T12:02:17.915Z,3.60
2022-09-26T12:03:18.057Z,3.80
2022-09-26T12:04:18.405Z,3.80
2022-09-26T12:05:18.346Z,3.40
2022-09-26T12:06:18.535Z,3.70
2022-09-26T12:07:18.705Z,4.20
2022-09-26T12:08:18.896Z,4.40
2022-09-26T12:09:19.056Z,3.10
2022-09-26T12:10:19.248Z,4.30
2022-09-26T12:11:19.461Z,4.30
2022-09-26T12:12:19.597Z,4.40
2022-09-26T12:13:19.798Z,5.00
2022-09-26T12:14:19.947Z,4.70
2022-09-26T12:15:20.136Z,3.60
2022-09-26T12:16:20.397Z,3.40
2022-09-26T12:17:20.511Z,3.20
2022-09-26T12:18:20.690Z,2.50
2022-09-26T12:19:20.858Z,3.10
2022-09-26T12:20:21.050Z,2.30
2022-09-26T12:21:21.250Z,3.00
2022-09-26T12:22:21.381Z,3.20
2022-09-26T12:23:21.583Z,3.20
2022-09-26T12:24:21.721Z,2.50
2022-09-26T12:25:21.911Z,4.40
2022-09-26T12:26:22.092Z,3.30
2022-09-26T12:27:22.251Z,3.10
2022-09-26T12:28:22.424Z,2.20
2022-09-26T12:29:22.582Z,3.20
2022-09-26T12:30:22.774Z,4.40
2022-09-26T12:31:22.954Z,1.90
2022-09-26T12:32:23.082Z,2.90
2022-09-26T12:33:23.281Z,4.20
2022-09-26T12:34:23.426Z,2.60
2022-09-26T12:35:23.615Z,4.30
2022-09-26T12:36:23.806Z,3.30
2022-09-26T12:37:23.966Z,3.30
2022-09-26T12:38:24.130Z,2.80
2022-09-26T12:39:24.307Z,3.60
2022-09-26T12:40:24.558Z,3.80
2022-09-26T12:41:24.678Z,2.70
2022-09-26T12:42:24.907Z,3.90
2022-09-26T12:43:25.048Z,3.40
2022-09-26T12:44:25.208Z,3.50
2022-09-26T12:45:25.360Z,3.80
2022-09-26T12:46:25.585Z,3.40
2022-09-26T12:47:25.750Z,3.20
2022-09-26T12:48:25.890Z,3.70
2022-09-26T12:49:26.081Z,4.00
2022-09-26T12:50:26.261Z,3.00
2022-09-26T12:51:26.450Z,4.10
2022-09-26T12:52:27.584Z,5.50
2022-09-26T12:53:26.781Z,4.70
2022-09-26T12:54:26.952Z,3.50
2022-09-26T12:55:27.155Z,2.30
2022-09-26T12:56:27.303Z,4.50
2022-09-26T12:57:27.494Z,3.90
2022-09-26T12:58:27.674Z,2.80
2022-09-26T12:59:27.854Z,4.50
2022-09-26T13:00:28.056Z,3.00
2022-09-26T13:01:28.275Z,3.20
2022-09-26T13:02:28.422Z,3.90
2022-09-26T13:03:28.550Z,2.80
2022-09-26T13:04:28.727Z,4.80
2022-09-26T13:05:28.905Z,4.20
2022-09-26T13:06:29.047Z,3.90
2022-09-26T13:07:29.238Z,4.70
2022-09-26T13:08:29.388Z,4.80
2022-09-26T13:09:29.572Z,2.50
2022-09-26T13:10:29.907Z,3.20
2022-09-26T13:11:32.547Z,4.20
2022-09-26T13:12:30.108Z,2.80
2022-09-26T13:13:30.304Z,5.20
2022-09-26T13:14:30.468Z,2.70
2022-09-26T13:15:30.663Z,3.50
2022-09-26T13:16:30.771Z,3.70
2022-09-26T13:17:30.963Z,3.50
2022-09-26T13:18:35.317Z,2.90
2022-09-26T13:19:31.322Z,3.80
2022-09-26T13:20:31.494Z,2.70
2022-09-26T13:21:31.691Z,2.80
2022-09-26T13:22:31.855Z,3.90
2022-09-26T13:23:32.015Z,3.70